Bellevue, Nebraska
Current Conditions -  °F | °C
As of 1:58 PM on Thursday 23 Oct 2014 (Local Time) from KOFF Reporting Station
Clear Clear  
Wind Chill: 70°   Ceiling: Unl
Heat Index: 70°   Visibility: 10mi
Dew Point: 59°   Wind: 7mph
Humidity: 68%   Direction: 260°W
Pressure: 30.03"   Gusts: NA
Location:  41.14°N, 95.89°W
Report Text: KOFF 231858Z AUTO 26006KT 10SM CLR 21/15 A3003 RMK AO2 SLP169 T02090149
Loading
Personal Weather Stations






























Interactive Weather Map
Tropical Storm Tracking
New forecast layout! Learn more

10-Day Weather Forecast

Advertisements
Track Severe Weather on mobile